Airfield :
LOGIN :

Register | Disclaimer

   EN    FR    IT 

 










Legend :    VFR   Marginal VFR   IFR   Intensive IFR   Very Intensive IFR
Visi :
Ceiling :
>= 8 km
>= 3000ft
5 to 8 km
1000 to 3000 ft
1500m to 5 km
500 to 1000 ft
800 to 1500m
200 to 500 ft
< 800m
< 200 ft
Symbols :   Thunderstorms  Fog  Heavy snow  Heavy precipitations  Wind > 20 kt
SIGMETs :     Misc.  Thunderstorms  Icing  Turbulence  Mountain Waves  Volcanic Ashes






- Airport Elevation : 82 ft
- IATA code : QIE


LFMI - Istres

CURRENT METAR :
  • 041200Z AUTO 35009KT 310V040 9999 //////CB 31/17 Q1015 TEMPO 24014KT -TSRA

EXPIRED METARs :
  • 041130Z AUTO 33013KT 9999 VCTS ///CB 31/16 Q1015 TEMPO 24014KT
  • 041100Z AUTO 33008KT 9999 ///CB 31/16 Q1015 TEMPO -TSRA
  • 041030Z AUTO 35005KT 300V040 9999 //////CB 32/16 Q1014 BECMG NSC
  • 041000Z AUTO 34007KT 300V020 CAVOK 32/16 Q1015 NOSIG
  • 040930Z AUTO 01006KT 320V050 CAVOK 31/16 Q1015 NOSIG

TAF AMD TAF LFMI
Valid from the 04 at 12:00 until the 05 at 09:00 UTC


041203Z 0412/0509 VRB02KT CAVOK TX35/0415Z TN23/0503Z
PROB40
TEMPO 0412/0415 34015G25KT -TSRA SCT040CB
TEMPO 0413/0419 24014KT
BECMG 0421/0424 34012KT



MET'MAP, your aeronautical weather chart ! - Copyright ORBIFLY December 2007 - Disclaimer

ORBIFLY MET'MAP TEAM :

Programming & Development : Alexandra Zaïnal
Original concept : Baudouin d'Aumeries
Technical & hardware support : Manuel Goepfert
Assistance : Marc-Olivier Méhu




SOURCES & CREDITS :

   NOAA